Time;durP1;ratioP1;P1;durP2;ratioP2;P2;SDS_P1;SDS_P2;PMS_P1;PMS_P2;Temp;Humidity;BMP_temperature;BMP_pressure;BME280_temperature;BME280_humidity;BME280_pressure;Samples;Min_cycle;Max_cycle;Signal;HPM_P1;HPM_P2
2023/01/24 00:01:20;;;;;;;57.22;37.47;;;3.30;83.00;;;;;;5063317;28;20106;-71
2023/01/24 00:03:47;;;;;;;57.08;38.40;;;3.30;83.00;;;;;;5058389;28;20152;-72
2023/01/24 00:06:13;;;;;;;53.28;35.90;;;3.40;83.00;;;;;;5063349;28;20097;-73
2023/01/24 00:08:39;;;;;;;56.35;38.25;;;3.40;82.50;;;;;;5061954;28;20484;-72
2023/01/24 00:11:07;;;;;;;55.22;36.55;;;3.30;82.50;;;;;;5071203;28;20166;-72
2023/01/24 00:13:34;;;;;;;53.97;36.25;;;3.30;82.60;;;;;;5063303;28;20043;-73
2023/01/24 00:16:13;;;;;;;54.42;36.97;;;3.30;82.60;;;;;;5063974;28;20028;-72
2023/01/24 00:18:39;;;;;;;54.42;35.95;;;3.30;82.80;;;;;;5058307;28;20029;-72
2023/01/24 00:21:16;;;;;;;53.45;35.15;;;3.30;82.60;;;;;;5046595;28;20542;-71
2023/01/24 00:23:45;;;;;;;53.63;36.13;;;3.30;82.40;;;;;;5040680;28;20132;-73
2023/01/24 00:26:12;;;;;;;56.83;37.65;;;3.30;82.20;;;;;;5055629;28;20039;-72
2023/01/24 00:28:38;;;;;;;55.30;36.47;;;3.30;82.00;;;;;;5064158;28;20097;-72
2023/01/24 00:31:04;;;;;;;55.20;37.28;;;3.40;82.20;;;;;;5064518;28;20571;-73
2023/01/24 00:33:30;;;;;;;57.70;37.42;;;3.30;82.30;;;;;;5067933;28;20038;-73
2023/01/24 00:35:55;;;;;;;54.13;38.17;;;3.30;82.40;;;;;;5064235;28;20112;-73
2023/01/24 00:38:21;;;;;;;57.10;37.03;;;3.30;82.50;;;;;;5061064;28;20422;-73
2023/01/24 00:40:47;;;;;;;56.40;37.72;;;3.30;82.70;;;;;;5066990;28;20032;-73
2023/01/24 00:43:13;;;;;;;51.90;36.05;;;3.30;82.80;;;;;;5066783;28;20550;-72
2023/01/24 00:45:39;;;;;;;55.20;38.42;;;3.30;82.40;;;;;;5066728;28;20029;-73
2023/01/24 00:48:06;;;;;;;53.58;36.05;;;3.30;82.50;;;;;;5065915;28;20024;-73
2023/01/24 00:50:33;;;;;;;50.92;33.42;;;3.30;82.60;;;;;;5059001;28;20036;-73
2023/01/24 00:52:59;;;;;;;46.60;30.63;;;3.30;82.80;;;;;;5060786;28;20032;-73
2023/01/24 00:55:25;;;;;;;48.28;32.85;;;3.40;82.90;;;;;;5071233;28;20114;-73
2023/01/24 00:57:50;;;;;;;48.60;31.90;;;3.30;82.90;;;;;;5059623;28;20029;-72
2023/01/24 01:00:16;;;;;;;44.47;30.98;;;3.30;83.10;;;;;;5058009;28;20478;-73
2023/01/24 01:02:42;;;;;;;46.58;31.40;;;3.30;83.00;;;;;;5067801;28;20051;-73
2023/01/24 01:05:08;;;;;;;48.40;31.63;;;3.20;83.10;;;;;;5064318;28;20415;-74
2023/01/24 01:07:34;;;;;;;47.78;31.88;;;3.30;83.20;;;;;;5070624;28;20031;-72
2023/01/24 01:09:59;;;;;;;47.00;30.70;;;3.20;82.80;;;;;;5064679;28;20025;-72
2023/01/24 01:12:25;;;;;;;51.55;33.95;;;3.20;82.90;;;;;;5076260;28;20055;-73
2023/01/24 01:14:51;;;;;;;56.22;35.40;;;3.20;82.40;;;;;;5074258;28;20021;-73
2023/01/24 01:17:16;;;;;;;52.03;35.72;;;3.20;82.40;;;;;;5068302;28;20059;-73
2023/01/24 01:19:42;;;;;;;53.72;36.15;;;3.30;82.60;;;;;;5049533;28;20062;-73
2023/01/24 01:22:08;;;;;;;52.13;35.05;;;3.30;82.60;;;;;;5064468;28;20473;-72
2023/01/24 01:24:34;;;;;;;52.97;35.38;;;3.30;82.50;;;;;;5063575;28;20037;-73
2023/01/24 01:27:00;;;;;;;53.33;36.75;;;3.20;82.10;;;;;;5064172;28;20024;-75
2023/01/24 01:29:26;;;;;;;55.15;37.33;;;3.30;82.00;;;;;;5050260;28;20090;-73
2023/01/24 01:31:52;;;;;;;55.38;37.55;;;3.30;82.00;;;;;;5048141;28;20408;-73
2023/01/24 01:34:17;;;;;;;54.17;36.97;;;3.30;82.00;;;;;;5066365;28;20028;-72
2023/01/24 01:36:43;;;;;;;58.50;38.03;;;3.20;82.00;;;;;;5060341;28;20032;-73
2023/01/24 01:39:09;;;;;;;57.22;37.67;;;3.20;82.50;;;;;;5067397;28;20024;-73
2023/01/24 01:41:35;;;;;;;56.67;37.50;;;3.20;82.60;;;;;;5064821;28;20058;-70
2023/01/24 01:44:38;;;;;;;51.75;34.42;;;3.20;82.60;;;;;;5069773;28;20032;-72
2023/01/24 01:47:19;;;;;;;52.53;36.47;;;3.10;82.20;;;;;;5068650;28;20489;-73
2023/01/24 01:49:59;;;;;;;50.58;35.47;;;3.20;82.40;;;;;;5055927;28;20028;-73
2023/01/24 01:52:29;;;;;;;54.95;36.88;;;3.20;82.20;;;;;;5065344;28;20051;-72
2023/01/24 01:55:00;;;;;;;53.88;36.35;;;3.20;81.90;;;;;;5065878;28;20819;-73
2023/01/24 01:57:30;;;;;;;55.47;37.05;;;3.10;82.20;;;;;;5061037;28;20044;-72
2023/01/24 02:00:07;;;;;;;54.42;39.40;;;3.10;82.40;;;;;;5071433;28;20024;-72
2023/01/24 02:02:33;;;;;;;57.22;38.10;;;3.10;82.40;;;;;;5058774;28;20041;-72
2023/01/24 02:05:02;;;;;;;55.90;38.05;;;3.10;82.60;;;;;;5052569;28;20016;-72
2023/01/24 02:07:39;;;;;;;57.83;37.75;;;3.20;82.60;;;;;;5058607;28;20032;-72
2023/01/24 02:10:05;;;;;;;58.47;38.38;;;3.10;82.80;;;;;;5067492;28;20092;-72
2023/01/24 02:12:38;;;;;;;60.63;39.83;;;3.10;82.60;;;;;;5052427;28;20088;-73
2023/01/24 02:17:55;;;;;;;56.88;39.72;;;3.00;82.70;;;;;;5061464;28;20182;-73
2023/01/24 02:20:32;;;;;;;57.88;39.20;;;3.10;82.70;;;;;;5067397;28;20524;-73
2023/01/24 02:23:01;;;;;;;59.95;39.67;;;3.10;82.50;;;;;;5069300;28;20049;-72
2023/01/24 02:25:30;;;;;;;56.55;38.83;;;3.10;82.40;;;;;;5070948;28;20039;-71
2023/01/24 02:27:55;;;;;;;59.13;39.78;;;3.10;82.30;;;;;;5067038;28;20070;-73
2023/01/24 02:30:21;;;;;;;57.30;39.05;;;3.10;82.50;;;;;;5063860;28;21346;-72
2023/01/24 02:32:47;;;;;;;61.35;41.47;;;3.10;82.80;;;;;;5067966;28;20028;-72
2023/01/24 02:35:24;;;;;;;58.83;39.50;;;3.00;83.00;;;;;;5062485;28;20052;-72
2023/01/24 02:37:50;;;;;;;59.65;40.40;;;3.00;82.80;;;;;;5062403;28;20041;-72
2023/01/24 02:40:17;;;;;;;59.22;40.60;;;3.10;83.00;;;;;;5060661;28;20874;-72
2023/01/24 02:42:43;;;;;;;58.90;39.92;;;3.10;83.10;;;;;;5062125;28;20049;-72
2023/01/24 02:45:29;;;;;;;62.80;40.90;;;3.00;83.20;;;;;;5044725;28;20557;-70
2023/01/24 02:47:56;;;;;;;56.78;39.90;;;3.00;83.20;;;;;;5063808;28;20396;-72
2023/01/24 02:50:24;;;;;;;56.75;39.35;;;3.00;83.30;;;;;;5063848;28;20483;-72
2023/01/24 02:58:05;;;;;;;59.70;40.43;;;3.10;83.20;;;;;;5066695;28;20384;-73
2023/01/24 02:58:25;;;;;;;58.53;38.95;;;3.10;83.50;;;;;;5062303;28;20041;-72
2023/01/24 03:00:51;;;;;;;58.10;40.53;;;3.10;83.50;;;;;;5057646;28;20094;-72
2023/01/24 03:03:16;;;;;;;57.55;40.67;;;3.10;83.60;;;;;;5066647;28;20052;-72
2023/01/24 03:05:57;;;;;;;60.15;41.35;;;3.00;83.70;;;;;;5072177;28;20488;-72
2023/01/24 03:08:25;;;;;;;59.92;41.20;;;3.00;83.60;;;;;;5066420;28;20098;-72
2023/01/24 03:10:52;;;;;;;58.28;40.28;;;3.10;83.70;;;;;;5070059;28;20037;-73
2023/01/24 03:35:13;;;;;;;61.38;40.38;;;2.90;83.70;;;;;;5069489;28;20297;-72
2023/01/24 03:40:22;;;;;;;59.80;40.50;;;3.00;83.90;;;;;;5063948;28;20035;-72
2023/01/24 03:42:48;;;;;;;55.25;39.22;;;3.00;83.60;;;;;;5063772;28;20040;-72
2023/01/24 03:45:17;;;;;;;53.42;36.53;;;3.00;83.30;;;;;;5061367;28;20070;-72
2023/01/24 03:48:04;;;;;;;52.60;37.00;;;3.00;83.30;;;;;;5046758;28;20040;-74
2023/01/24 03:53:25;;;;;;;53.90;36.67;;;3.00;83.10;;;;;;5053397;28;20056;-72
2023/01/24 03:55:56;;;;;;;53.60;36.45;;;3.00;83.30;;;;;;5042617;28;20361;-73
2023/01/24 03:58:22;;;;;;;53.95;37.25;;;3.00;83.40;;;;;;5068649;28;20116;-73
2023/01/24 04:00:48;;;;;;;54.10;36.45;;;3.00;83.60;;;;;;5061665;28;20107;-73
2023/01/24 04:03:14;;;;;;;54.47;38.03;;;3.00;83.40;;;;;;5061188;28;20029;-74
2023/01/24 04:05:40;;;;;;;54.63;37.40;;;2.90;83.40;;;;;;5068080;28;20041;-73
2023/01/24 04:08:07;;;;;;;56.10;37.95;;;2.90;83.60;;;;;;5039118;28;20027;-73
2023/01/24 04:10:33;;;;;;;51.47;35.42;;;2.90;83.80;;;;;;5070275;28;20058;-73
2023/01/24 04:12:59;;;;;;;53.65;36.25;;;2.90;83.90;;;;;;5062696;28;20021;-73
2023/01/24 04:15:27;;;;;;;53.15;36.90;;;2.90;83.80;;;;;;5074458;28;20058;-72
2023/01/24 04:17:57;;;;;;;54.05;36.70;;;2.90;83.80;;;;;;5060269;28;20064;-72
2023/01/24 04:20:24;;;;;;;51.95;36.22;;;3.00;84.00;;;;;;5068962;28;20077;-71
2023/01/24 04:22:49;;;;;;;50.85;35.95;;;3.00;83.90;;;;;;5069823;28;20059;-72
2023/01/24 04:25:15;;;;;;;52.20;36.75;;;2.90;84.00;;;;;;5046611;28;20021;-71
2023/01/24 04:27:41;;;;;;;58.22;38.00;;;3.00;84.20;;;;;;5068694;28;20120;-72
2023/01/24 04:30:08;;;;;;;60.25;40.83;;;3.00;84.30;;;;;;5048092;28;20012;-72
2023/01/24 04:32:34;;;;;;;63.63;42.92;;;2.90;84.00;;;;;;5063223;28;20141;-72
2023/01/24 04:35:00;;;;;;;62.72;41.60;;;3.00;83.90;;;;;;5070600;28;20454;-73
2023/01/24 04:37:27;;;;;;;63.45;42.47;;;3.00;83.80;;;;;;5066297;28;20443;-72
2023/01/24 04:39:53;;;;;;;63.60;42.63;;;3.00;83.80;;;;;;5072209;28;20021;-72
2023/01/24 04:42:19;;;;;;;66.00;41.50;;;3.00;83.90;;;;;;5061536;28;20488;-73
2023/01/24 04:44:44;;;;;;;61.85;41.50;;;2.90;84.10;;;;;;5063204;28;20665;-73
2023/01/24 04:47:10;;;;;;;61.03;39.88;;;3.00;84.10;;;;;;5066182;28;20056;-73
2023/01/24 04:49:35;;;;;;;58.42;39.72;;;3.00;84.00;;;;;;5059620;28;20063;-72
2023/01/24 04:52:01;;;;;;;58.53;39.53;;;2.80;83.90;;;;;;5066449;28;20025;-72
2023/01/24 04:54:27;;;;;;;58.70;40.20;;;2.70;83.90;;;;;;5065332;28;20039;-73
2023/01/24 04:56:52;;;;;;;60.28;40.80;;;2.80;83.80;;;;;;5064636;28;20032;-72
2023/01/24 04:59:18;;;;;;;57.17;38.95;;;2.80;83.70;;;;;;5074331;28;20518;-72
2023/01/24 05:01:44;;;;;;;58.35;39.50;;;2.90;83.60;;;;;;5062757;28;20115;-72
2023/01/24 05:04:09;;;;;;;61.72;40.72;;;2.90;83.50;;;;;;5072180;28;20119;-72
2023/01/24 05:06:35;;;;;;;62.53;41.13;;;2.90;83.60;;;;;;5064293;28;20040;-72
2023/01/24 05:09:02;;;;;;;62.65;41.45;;;2.80;83.90;;;;;;5057848;28;20025;-72
2023/01/24 05:11:27;;;;;;;66.60;43.15;;;2.70;84.00;;;;;;5064996;28;20032;-73
2023/01/24 05:13:53;;;;;;;64.93;43.17;;;2.60;84.20;;;;;;5068100;28;20081;-72
2023/01/24 05:16:19;;;;;;;66.43;42.58;;;2.60;84.20;;;;;;5071058;28;20032;-73
2023/01/24 05:18:45;;;;;;;63.70;41.45;;;2.50;84.40;;;;;;5070047;28;20373;-72
2023/01/24 05:21:13;;;;;;;66.95;43.30;;;2.60;84.40;;;;;;5074364;28;20052;-72
2023/01/24 05:23:39;;;;;;;69.75;45.60;;;2.60;84.30;;;;;;5068554;28;20070;-72
2023/01/24 05:26:05;;;;;;;65.88;43.10;;;2.60;84.40;;;;;;5063462;28;20029;-72
2023/01/24 05:28:31;;;;;;;68.63;43.88;;;2.60;84.40;;;;;;5067430;28;20107;-72
2023/01/24 05:31:03;;;;;;;71.13;44.20;;;2.60;84.30;;;;;;5048179;28;20028;-71
2023/01/24 05:33:29;;;;;;;71.93;45.90;;;2.60;84.20;;;;;;5066638;28;20039;-72
2023/01/24 05:36:00;;;;;;;70.07;45.72;;;2.60;84.30;;;;;;5075727;28;20035;-71
2023/01/24 05:38:25;;;;;;;69.97;43.50;;;2.60;84.10;;;;;;5072084;28;20033;-72
2023/01/24 05:40:51;;;;;;;72.05;43.92;;;2.60;84.20;;;;;;5060754;28;20088;-71
2023/01/24 05:43:17;;;;;;;66.18;42.42;;;2.60;84.20;;;;;;5044890;28;20025;-71
2023/01/24 05:45:42;;;;;;;73.75;45.03;;;2.60;84.10;;;;;;5065274;28;20511;-71
2023/01/24 05:48:09;;;;;;;69.25;43.33;;;2.60;84.20;;;;;;5062082;28;20025;-72
2023/01/24 05:50:36;;;;;;;67.47;43.72;;;2.70;84.20;;;;;;5066332;28;20024;-72
2023/01/24 05:53:05;;;;;;;62.97;40.58;;;2.70;84.10;;;;;;5063075;28;20086;-72
2023/01/24 05:55:30;;;;;;;66.57;42.15;;;2.60;84.20;;;;;;5046890;28;20488;-72
2023/01/24 05:57:59;;;;;;;62.65;40.92;;;2.60;84.20;;;;;;5062640;28;20052;-72
2023/01/24 06:00:25;;;;;;;68.07;42.30;;;2.70;84.10;;;;;;5065406;28;20020;-72
2023/01/24 06:02:51;;;;;;;61.90;40.42;;;2.60;83.90;;;;;;5057666;28;20641;-72
2023/01/24 06:05:16;;;;;;;65.20;42.08;;;2.70;83.80;;;;;;5062487;28;20028;-71
2023/01/24 06:07:42;;;;;;;60.30;40.63;;;2.70;83.80;;;;;;5061144;28;20033;-72
2023/01/24 06:10:10;;;;;;;56.17;36.55;;;2.70;84.10;;;;;;5067332;28;20465;-72
2023/01/24 06:12:35;;;;;;;57.58;38.05;;;2.60;84.00;;;;;;5057355;28;20072;-72
2023/01/24 06:15:01;;;;;;;57.25;37.85;;;2.60;84.20;;;;;;5048779;28;20059;-72
2023/01/24 06:17:27;;;;;;;57.25;38.30;;;2.60;84.30;;;;;;5065392;28;20024;-71
2023/01/24 06:19:53;;;;;;;55.90;37.03;;;2.60;84.20;;;;;;5059386;28;20039;-72
2023/01/24 06:22:30;;;;;;;53.25;35.60;;;2.60;84.50;;;;;;5060493;28;20028;-73
2023/01/24 06:24:56;;;;;;;53.60;35.03;;;2.60;84.30;;;;;;5058798;28;20124;-73
2023/01/24 06:27:21;;;;;;;55.45;35.00;;;2.50;84.10;;;;;;5066271;28;20116;-72
2023/01/24 06:29:47;;;;;;;51.97;34.58;;;2.40;84.40;;;;;;5059620;28;20107;-71
2023/01/24 06:32:39;;;;;;;51.97;37.00;;;2.40;84.40;;;;;;5040590;28;20041;-72
2023/01/24 06:35:24;;;;;;;52.03;34.17;;;2.50;84.40;;;;;;5062208;28;20021;-72
2023/01/24 06:37:51;;;;;;;53.53;36.33;;;2.40;84.40;;;;;;5068228;28;20039;-72
2023/01/24 06:40:20;;;;;;;52.60;35.35;;;2.40;84.60;;;;;;5064297;28;20028;-72
2023/01/24 06:42:46;;;;;;;52.00;34.45;;;2.50;84.60;;;;;;5066994;28;20036;-72
2023/01/24 06:45:12;;;;;;;51.22;34.45;;;2.40;84.60;;;;;;5054075;28;20024;-71
2023/01/24 06:47:39;;;;;;;57.53;35.97;;;2.40;84.70;;;;;;5064707;28;20087;-72
2023/01/24 06:50:07;;;;;;;55.75;37.42;;;2.40;84.90;;;;;;5058610;28;20191;-72
2023/01/24 06:52:34;;;;;;;51.83;34.88;;;2.40;84.80;;;;;;5073090;28;20033;-71
2023/01/24 06:55:00;;;;;;;55.92;37.75;;;2.50;84.90;;;;;;5066440;28;20040;-72
2023/01/24 06:57:25;;;;;;;56.72;38.33;;;2.50;84.70;;;;;;5053898;28;20041;-71
2023/01/24 06:59:51;;;;;;;60.10;39.38;;;2.50;84.70;;;;;;5067815;28;20020;-71
2023/01/24 07:02:17;;;;;;;59.35;40.10;;;2.60;84.90;;;;;;5061913;28;20058;-72
2023/01/24 07:04:42;;;;;;;61.70;40.92;;;2.60;84.90;;;;;;5067526;28;20045;-71
2023/01/24 07:07:08;;;;;;;62.13;41.33;;;2.60;84.80;;;;;;5059117;28;20028;-71
2023/01/24 07:09:34;;;;;;;58.22;38.53;;;2.60;84.80;;;;;;5043594;28;20069;-71
2023/01/24 07:12:00;;;;;;;60.88;40.63;;;2.60;84.70;;;;;;5063572;28;20127;-71
2023/01/24 07:14:26;;;;;;;57.22;38.75;;;2.60;85.00;;;;;;5049107;28;20036;-72
2023/01/24 07:16:52;;;;;;;65.05;41.45;;;2.60;85.00;;;;;;5064237;28;20696;-71
2023/01/24 07:19:24;;;;;;;66.97;46.63;;;2.50;85.00;;;;;;5064550;28;20540;-71
2023/01/24 07:21:52;;;;;;;67.82;43.20;;;2.60;85.20;;;;;;5046883;28;20447;-72
2023/01/24 07:24:21;;;;;;;71.95;45.70;;;2.50;85.00;;;;;;5067286;28;20485;-72
2023/01/24 07:26:50;;;;;;;71.28;45.38;;;2.50;85.00;;;;;;5066371;28;20102;-71
2023/01/24 07:29:20;;;;;;;74.18;46.55;;;2.40;84.90;;;;;;5066991;28;20025;-72
2023/01/24 07:31:47;;;;;;;73.88;47.28;;;2.60;85.00;;;;;;5061485;28;20124;-72
2023/01/24 07:34:14;;;;;;;75.45;47.13;;;2.60;84.70;;;;;;5064901;28;20029;-72
2023/01/24 07:36:44;;;;;;;72.78;44.25;;;2.60;84.70;;;;;;5062058;28;20055;-72
2023/01/24 07:39:10;;;;;;;71.70;46.42;;;2.60;84.80;;;;;;5065410;28;20158;-73
2023/01/24 07:41:36;;;;;;;75.10;48.60;;;2.60;84.90;;;;;;5057956;28;20079;-72
2023/01/24 07:44:05;;;;;;;79.80;48.20;;;2.60;84.90;;;;;;5063591;28;20106;-72
2023/01/24 07:46:34;;;;;;;71.88;46.25;;;2.60;84.90;;;;;;5064078;28;20038;-73
2023/01/24 07:49:00;;;;;;;75.30;47.72;;;2.60;85.00;;;;;;5079093;28;20024;-72
2023/01/24 07:51:27;;;;;;;72.63;46.00;;;2.60;84.90;;;;;;5053120;28;20040;-73
2023/01/24 07:53:52;;;;;;;74.60;47.05;;;2.60;84.80;;;;;;5066911;28;20050;-73
2023/01/24 07:56:18;;;;;;;76.03;47.05;;;2.60;84.80;;;;;;5056731;28;20640;-72
2023/01/24 07:58:44;;;;;;;72.97;45.65;;;2.50;84.90;;;;;;5067200;28;20051;-73
2023/01/24 08:01:16;;;;;;;74.85;45.80;;;2.60;84.90;;;;;;5062470;28;20441;-76
2023/01/24 08:03:41;;;;;;;71.70;45.95;;;2.50;84.60;;;;;;5068238;28;20159;-77
2023/01/24 08:06:07;;;;;;;73.97;46.90;;;2.50;84.80;;;;;;5071639;28;20115;-75
2023/01/24 08:08:33;;;;;;;71.20;45.17;;;2.50;84.80;;;;;;5060143;28;20473;-77
2023/01/24 08:10:58;;;;;;;71.22;45.30;;;2.40;84.70;;;;;;5071112;28;20033;-76
2023/01/24 08:13:24;;;;;;;72.32;45.80;;;2.40;84.90;;;;;;5066890;28;20037;-74
2023/01/24 08:15:50;;;;;;;69.50;44.60;;;2.40;84.80;;;;;;5058072;28;20037;-75
2023/01/24 08:18:17;;;;;;;72.97;47.25;;;2.40;84.70;;;;;;5047404;28;20032;-74
2023/01/24 08:20:43;;;;;;;74.80;45.20;;;2.50;84.70;;;;;;5060553;28;20476;-75
2023/01/24 08:23:09;;;;;;;71.90;44.38;;;2.50;84.40;;;;;;5068469;28;20040;-74
2023/01/24 08:25:34;;;;;;;71.50;46.10;;;2.40;84.70;;;;;;5057415;28;20035;-75
2023/01/24 08:28:00;;;;;;;73.00;46.50;;;2.50;84.80;;;;;;5057227;28;20461;-76
2023/01/24 08:30:26;;;;;;;70.53;44.88;;;2.40;84.80;;;;;;5056775;28;20440;-74
2023/01/24 08:33:00;;;;;;;74.40;45.25;;;2.40;84.80;;;;;;5058583;28;20111;-75
2023/01/24 08:35:25;;;;;;;74.88;47.30;;;2.50;84.80;;;;;;5058791;28;20028;-75
2023/01/24 08:37:51;;;;;;;67.82;45.33;;;2.60;84.80;;;;;;5056004;28;20509;-74
2023/01/24 08:40:18;;;;;;;72.30;45.55;;;2.60;84.50;;;;;;5062022;28;20044;-75
2023/01/24 08:42:44;;;;;;;70.90;44.45;;;2.70;84.60;;;;;;5061285;28;20033;-74
2023/01/24 08:45:10;;;;;;;71.60;47.08;;;2.60;84.40;;;;;;5059265;28;20050;-74
2023/01/24 08:47:36;;;;;;;70.28;44.45;;;2.60;84.50;;;;;;5058100;28;20036;-74
2023/01/24 08:50:02;;;;;;;74.72;46.65;;;2.60;84.50;;;;;;5058463;28;20172;-75
2023/01/24 08:52:28;;;;;;;76.05;48.85;;;2.60;84.40;;;;;;5058734;28;20052;-75
2023/01/24 08:54:54;;;;;;;73.15;45.83;;;2.60;84.40;;;;;;5063438;28;20033;-76
2023/01/24 08:57:19;;;;;;;73.78;46.80;;;2.70;84.40;;;;;;5059106;28;20041;-74
2023/01/24 08:59:45;;;;;;;73.00;47.13;;;2.70;84.30;;;;;;5061647;28;20484;-74
2023/01/24 09:02:16;;;;;;;73.65;46.13;;;2.80;84.20;;;;;;5061722;28;20070;-79
2023/01/24 09:04:42;;;;;;;70.47;45.10;;;2.80;84.00;;;;;;5066839;28;20028;-80
2023/01/24 09:07:10;;;;;;;68.05;43.92;;;2.90;83.90;;;;;;5063307;28;20392;-78
2023/01/24 09:09:36;;;;;;;68.35;44.40;;;2.90;83.70;;;;;;5072362;28;20025;-77
2023/01/24 09:12:02;;;;;;;65.20;44.00;;;2.80;83.90;;;;;;5060556;28;20029;-78
2023/01/24 09:14:27;;;;;;;65.97;43.83;;;2.70;83.90;;;;;;5064388;28;20588;-77
2023/01/24 09:16:54;;;;;;;68.65;44.08;;;2.80;84.20;;;;;;5060529;28;20412;-79
2023/01/24 09:19:20;;;;;;;70.63;45.90;;;2.70;84.20;;;;;;5061976;28;20032;-79
2023/01/24 09:21:50;;;;;;;71.68;45.35;;;2.70;84.20;;;;;;5061735;28;20028;-77
2023/01/24 09:24:16;;;;;;;71.70;46.55;;;2.70;84.10;;;;;;5060158;28;20070;-76
2023/01/24 09:26:44;;;;;;;70.80;45.63;;;2.70;84.20;;;;;;5042750;28;20028;-75
2023/01/24 09:29:09;;;;;;;75.25;47.58;;;2.80;84.30;;;;;;5062965;28;20680;-75
2023/01/24 09:31:35;;;;;;;70.45;45.95;;;2.70;84.40;;;;;;5064545;28;20064;-75
2023/01/24 09:34:01;;;;;;;77.13;48.03;;;2.80;84.40;;;;;;5061268;28;20090;-74
2023/01/24 09:36:27;;;;;;;74.93;47.50;;;2.80;84.30;;;;;;5063770;28;20147;-76
2023/01/24 09:38:53;;;;;;;77.55;47.33;;;2.80;84.30;;;;;;5047053;28;20067;-76
2023/01/24 09:41:43;;;;;;;75.57;47.63;;;2.80;84.20;;;;;;5060204;28;20354;-75
2023/01/24 09:44:39;;;;;;;69.05;44.85;;;2.90;84.30;;;;;;5054605;28;20028;-77
2023/01/24 09:47:20;;;;;;;60.13;39.90;;;3.00;84.40;;;;;;5037991;28;20033;-78
2023/01/24 09:50:02;;;;;;;60.97;38.70;;;3.10;83.70;;;;;;5054640;28;20025;-77
2023/01/24 09:52:40;;;;;;;57.33;38.90;;;3.10;83.20;;;;;;5061756;28;20036;-77
2023/01/24 09:55:25;;;;;;;56.00;37.47;;;3.10;83.10;;;;;;5051564;28;20045;-77
2023/01/24 09:58:26;;;;;;;58.92;39.45;;;3.10;83.20;;;;;;5059572;28;20043;-76
2023/01/24 10:00:52;;;;;;;55.63;37.70;;;3.20;83.30;;;;;;5060790;28;20040;-75
2023/01/24 10:03:22;;;;;;;54.40;37.95;;;3.20;83.10;;;;;;5056880;28;20804;-77
2023/01/24 10:05:51;;;;;;;54.70;39.47;;;3.30;82.90;;;;;;5039274;28;20051;-76
2023/01/24 10:08:45;;;;;;;56.83;38.83;;;3.40;83.20;;;;;;5060579;28;20624;-77
2023/01/24 10:11:41;;;;;;;57.28;39.70;;;3.40;82.80;;;;;;5058295;28;20028;-79
2023/01/24 10:14:57;;;;;;;58.40;39.53;;;3.40;82.50;;;;;;5062922;28;20086;-76
2023/01/24 10:17:25;;;;;;;59.42;38.55;;;3.50;82.20;;;;;;4997673;28;20030;-75
2023/01/24 10:20:32;;;;;;;56.67;38.60;;;3.50;82.20;;;;;;5052756;28;20060;-76
2023/01/24 10:23:16;;;;;;;52.97;36.22;;;3.50;82.20;;;;;;4982914;28;20514;-77
2023/01/24 10:25:51;;;;;;;53.55;36.38;;;3.50;82.10;;;;;;4990725;28;20042;-76
2023/01/24 10:28:27;;;;;;;52.33;36.03;;;3.40;81.60;;;;;;5030617;28;20542;-76
2023/01/24 10:31:05;;;;;;;49.90;35.55;;;3.30;81.40;;;;;;5042140;28;20029;-77
2023/01/24 10:33:39;;;;;;;51.83;35.17;;;3.20;81.50;;;;;;5037092;28;20284;-76
2023/01/24 10:36:22;;;;;;;55.20;37.58;;;3.10;82.00;;;;;;5045535;28;20056;-77
2023/01/24 10:38:48;;;;;;;57.15;38.00;;;2.90;82.50;;;;;;5057292;28;20110;-77
2023/01/24 10:41:18;;;;;;;57.08;38.65;;;3.00;82.80;;;;;;5057033;28;20440;-75
2023/01/24 10:43:59;;;;;;;57.80;38.17;;;2.90;83.20;;;;;;5041282;28;20080;-76
2023/01/24 10:46:42;;;;;;;60.03;39.10;;;3.00;83.30;;;;;;5048181;28;20484;-76
2023/01/24 10:49:14;;;;;;;56.42;39.05;;;3.10;83.30;;;;;;5050168;28;20012;-74
2023/01/24 10:51:40;;;;;;;62.17;40.72;;;3.00;83.10;;;;;;5046039;28;20050;-76
2023/01/24 10:54:20;;;;;;;62.05;42.25;;;3.00;83.20;;;;;;5049921;28;20473;-74
2023/01/24 10:56:46;;;;;;;60.35;41.03;;;3.10;83.10;;;;;;5037096;28;20043;-76
2023/01/24 10:59:14;;;;;;;64.22;42.75;;;3.10;82.90;;;;;;5045637;28;20532;-77
2023/01/24 11:01:46;;;;;;;69.10;43.63;;;3.10;83.20;;;;;;5045129;28;20413;-74
2023/01/24 11:04:27;;;;;;;65.68;43.38;;;3.10;83.00;;;;;;5039653;28;20074;-76
2023/01/24 11:06:53;;;;;;;65.60;43.95;;;3.20;83.00;;;;;;5043880;28;20060;-75
2023/01/24 11:09:24;;;;;;;61.85;42.85;;;3.30;83.00;;;;;;5045762;28;20417;-75
2023/01/24 11:11:55;;;;;;;56.58;39.85;;;3.40;82.70;;;;;;5047742;28;20142;-78
2023/01/24 11:14:26;;;;;;;60.42;40.55;;;3.40;82.40;;;;;;5049854;28;20032;-76
2023/01/24 11:16:57;;;;;;;56.20;39.67;;;3.40;82.00;;;;;;5048181;28;20036;-76
2023/01/24 11:19:31;;;;;;;52.83;38.20;;;3.50;81.80;;;;;;5046127;28;20108;-75
2023/01/24 11:22:20;;;;;;;54.92;38.97;;;3.50;81.70;;;;;;5047649;28;20127;-76
2023/01/24 11:24:46;;;;;;;53.42;38.10;;;3.60;81.50;;;;;;5045818;28;20040;-78
2023/01/24 11:27:18;;;;;;;55.60;38.50;;;3.70;81.70;;;;;;5045522;28;20036;-73
2023/01/24 11:29:44;;;;;;;55.65;38.88;;;3.70;81.30;;;;;;5044235;28;20035;-76
2023/01/24 11:32:35;;;;;;;51.22;36.95;;;3.70;80.90;;;;;;5039196;28;20043;-78
2023/01/24 11:35:12;;;;;;;51.90;36.97;;;3.60;80.50;;;;;;5043263;28;20187;-75
2023/01/24 11:37:59;;;;;;;55.30;37.92;;;3.50;80.80;;;;;;5033004;28;20020;-77
2023/01/24 11:40:51;;;;;;;55.42;39.83;;;3.40;81.20;;;;;;5031364;28;20107;-74
2023/01/24 11:43:35;;;;;;;55.22;37.95;;;3.40;81.10;;;;;;5032512;28;20043;-77
2023/01/24 11:46:30;;;;;;;54.88;38.00;;;3.40;81.30;;;;;;5030961;28;20118;-74
2023/01/24 11:49:31;;;;;;;55.60;37.58;;;3.30;81.00;;;;;;5031418;28;20548;-75
2023/01/24 11:52:12;;;;;;;57.75;39.22;;;3.20;81.50;;;;;;5031942;28;20739;-76
2023/01/24 11:55:36;;;;;;;56.50;37.95;;;3.20;81.40;;;;;;5030270;28;20029;-76
2023/01/24 11:58:20;;;;;;;57.47;36.17;;;3.10;81.90;;;;;;4947393;28;20057;-73
2023/01/24 12:01:21;;;;;;;56.30;36.67;;;2.90;81.70;;;;;;4956570;28;20086;-75
2023/01/24 12:04:24;;;;;;;56.60;38.22;;;2.90;82.30;;;;;;5031751;28;20124;-75
2023/01/24 12:07:14;;;;;;;57.45;38.25;;;2.80;82.60;;;;;;5033557;28;20060;-73
2023/01/24 12:10:06;;;;;;;56.50;38.08;;;2.90;82.50;;;;;;5033760;28;20026;-74
2023/01/24 12:12:58;;;;;;;56.20;37.25;;;3.10;82.10;;;;;;5028268;28;20570;-74
2023/01/24 12:15:49;;;;;;;54.83;37.55;;;3.10;81.60;;;;;;5031603;28;20123;-73
2023/01/24 12:18:27;;;;;;;52.17;36.00;;;3.10;81.70;;;;;;5033663;28;20652;-74
2023/01/24 12:21:00;;;;;;;53.35;35.42;;;3.00;81.20;;;;;;5030286;28;20083;-74
2023/01/24 12:23:49;;;;;;;53.38;36.47;;;2.90;81.90;;;;;;5037988;28;20048;-75
2023/01/24 12:26:23;;;;;;;52.05;37.08;;;3.00;82.40;;;;;;5052053;28;20036;-75
2023/01/24 12:29:20;;;;;;;54.72;36.80;;;2.90;81.90;;;;;;5056139;28;20025;-74
2023/01/24 12:31:50;;;;;;;55.70;37.75;;;3.00;82.10;;;;;;5053274;28;20090;-74
2023/01/24 12:34:52;;;;;;;53.95;37.47;;;2.90;82.30;;;;;;5052087;28;20028;-75
2023/01/24 12:37:35;;;;;;;56.15;38.03;;;3.00;82.30;;;;;;5056004;28;20060;-75
2023/01/24 12:40:17;;;;;;;54.45;39.17;;;2.80;82.30;;;;;;5067133;28;20085;-77
2023/01/24 12:43:39;;;;;;;54.40;37.20;;;2.90;82.20;;;;;;5061009;28;20044;-75
2023/01/24 12:46:36;;;;;;;51.53;34.03;;;3.00;82.10;;;;;;4969681;28;20053;-77
2023/01/24 12:49:33;;;;;;;52.03;36.17;;;2.80;82.10;;;;;;5074089;28;20040;-78
2023/01/24 12:52:09;;;;;;;55.88;37.10;;;2.90;82.00;;;;;;5058549;28;20134;-76
2023/01/24 12:54:42;;;;;;;53.75;35.25;;;2.80;82.20;;;;;;5064367;28;20519;-77
2023/01/24 12:57:25;;;;;;;54.42;36.92;;;2.90;82.40;;;;;;5054347;28;20029;-75
2023/01/24 12:59:51;;;;;;;54.47;36.60;;;2.90;82.30;;;;;;5056940;28;20016;-75
2023/01/24 13:02:26;;;;;;;54.92;37.53;;;3.10;82.10;;;;;;5054120;28;20472;-75
2023/01/24 13:04:57;;;;;;;53.45;36.97;;;3.20;82.00;;;;;;5053422;28;20473;-75
2023/01/24 13:07:39;;;;;;;52.28;36.05;;;3.30;81.70;;;;;;5038651;28;20299;-76
2023/01/24 13:10:36;;;;;;;52.65;36.20;;;3.40;81.60;;;;;;5056335;28;20531;-76
2023/01/24 13:13:03;;;;;;;50.83;34.55;;;3.50;81.20;;;;;;5058189;28;20033;-76
2023/01/24 13:16:17;;;;;;;52.67;36.75;;;3.50;80.90;;;;;;5053818;28;20029;-75
2023/01/24 13:19:00;;;;;;;56.10;39.60;;;3.50;80.60;;;;;;5014463;28;20040;-75
2023/01/24 13:21:55;;;;;;;60.60;40.17;;;3.50;80.80;;;;;;5060359;28;20058;-75
2023/01/24 13:24:40;;;;;;;65.78;43.85;;;3.30;80.80;;;;;;5059129;28;20041;-77
2023/01/24 13:27:31;;;;;;;62.90;42.58;;;3.20;81.20;;;;;;5056938;28;20043;-75
2023/01/24 13:30:21;;;;;;;60.78;41.03;;;3.10;81.20;;;;;;5061194;28;20032;-77
2023/01/24 13:32:49;;;;;;;57.60;39.47;;;3.10;81.80;;;;;;5057019;28;20765;-76